sensor_id;sensor_type;location;lat;lon;timestamp;temperature;humidity
2463;DHT22;1243;54.298;10.172;2022-10-16T00:01:34;13.40;37.70
2463;DHT22;1243;54.298;10.172;2022-10-16T00:04:01;13.40;41.30
2463;DHT22;1243;54.298;10.172;2022-10-16T00:06:28;13.30;39.70
2463;DHT22;1243;54.298;10.172;2022-10-16T00:08:55;13.30;47.10
2463;DHT22;1243;54.298;10.172;2022-10-16T00:11:23;13.30;41.30
2463;DHT22;1243;54.298;10.172;2022-10-16T00:13:51;13.30;39.80
2463;DHT22;1243;54.298;10.172;2022-10-16T00:16:19;13.30;43.00
2463;DHT22;1243;54.298;10.172;2022-10-16T00:18:45;13.30;46.90
2463;DHT22;1243;54.298;10.172;2022-10-16T00:21:14;13.30;43.20
2463;DHT22;1243;54.298;10.172;2022-10-16T00:23:41;13.20;36.60
2463;DHT22;1243;54.298;10.172;2022-10-16T00:26:12;13.10;33.80
2463;DHT22;1243;54.298;10.172;2022-10-16T00:28:38;13.20;36.60
2463;DHT22;1243;54.298;10.172;2022-10-16T00:31:09;13.20;36.90
2463;DHT22;1243;54.298;10.172;2022-10-16T00:33:37;13.10;37.60
2463;DHT22;1243;54.298;10.172;2022-10-16T00:36:04;13.10;35.20
2463;DHT22;1243;54.298;10.172;2022-10-16T00:38:30;13.10;36.40
2463;DHT22;1243;54.298;10.172;2022-10-16T00:40:56;13.10;36.00
2463;DHT22;1243;54.298;10.172;2022-10-16T00:51:42;13.00;35.20
2463;DHT22;1243;54.298;10.172;2022-10-16T00:54:13;13.00;33.90
2463;DHT22;1243;54.298;10.172;2022-10-16T00:56:39;13.00;32.70
2463;DHT22;1243;54.298;10.172;2022-10-16T00:59:13;12.90;35.00
2463;DHT22;1243;54.298;10.172;2022-10-16T01:01:40;12.90;34.40
2463;DHT22;1243;54.298;10.172;2022-10-16T01:04:06;13.00;35.00
2463;DHT22;1243;54.298;10.172;2022-10-16T01:09:27;12.90;34.10
2463;DHT22;1243;54.298;10.172;2022-10-16T01:17:22;13.00;31.40
2463;DHT22;1243;54.298;10.172;2022-10-16T01:28:22;13.00;33.30
2463;DHT22;1243;54.298;10.172;2022-10-16T01:30:52;13.00;26.70
2463;DHT22;1243;54.298;10.172;2022-10-16T01:33:26;13.00;32.10
2463;DHT22;1243;54.298;10.172;2022-10-16T01:35:57;13.00;23.10
2463;DHT22;1243;54.298;10.172;2022-10-16T01:38:33;13.00;22.90
2463;DHT22;1243;54.298;10.172;2022-10-16T01:41:22;13.00;34.70
2463;DHT22;1243;54.298;10.172;2022-10-16T01:44:01;13.00;31.40
2463;DHT22;1243;54.298;10.172;2022-10-16T01:46:28;13.00;24.20
2463;DHT22;1243;54.298;10.172;2022-10-16T01:48:57;13.00;20.60
2463;DHT22;1243;54.298;10.172;2022-10-16T01:51:23;13.00;20.20
2463;DHT22;1243;54.298;10.172;2022-10-16T01:53:53;13.00;24.70
2463;DHT22;1243;54.298;10.172;2022-10-16T01:56:20;13.00;23.70
2463;DHT22;1243;54.298;10.172;2022-10-16T01:59:04;13.00;21.20
2463;DHT22;1243;54.298;10.172;2022-10-16T02:01:33;13.00;19.70
2463;DHT22;1243;54.298;10.172;2022-10-16T02:04:13;13.00;12.60
2463;DHT22;1243;54.298;10.172;2022-10-16T02:06:40;13.00;22.40
2463;DHT22;1243;54.298;10.172;2022-10-16T02:09:06;13.00;18.30
2463;DHT22;1243;54.298;10.172;2022-10-16T02:11:32;13.00;19.40
2463;DHT22;1243;54.298;10.172;2022-10-16T02:14:04;13.00;19.90
2463;DHT22;1243;54.298;10.172;2022-10-16T02:16:59;13.00;22.10
2463;DHT22;1243;54.298;10.172;2022-10-16T02:19:25;13.00;15.60
2463;DHT22;1243;54.298;10.172;2022-10-16T02:21:56;13.00;16.80
2463;DHT22;1243;54.298;10.172;2022-10-16T02:27:13;13.00;17.80
2463;DHT22;1243;54.298;10.172;2022-10-16T02:29:49;13.00;15.70
2463;DHT22;1243;54.298;10.172;2022-10-16T02:32:21;13.00;14.40
2463;DHT22;1243;54.298;10.172;2022-10-16T02:34:49;13.00;12.40
2463;DHT22;1243;54.298;10.172;2022-10-16T02:37:17;13.00;5.60
2463;DHT22;1243;54.298;10.172;2022-10-16T02:39:43;13.00;5.30
2463;DHT22;1243;54.298;10.172;2022-10-16T02:42:13;13.00;10.80
2463;DHT22;1243;54.298;10.172;2022-10-16T02:44:39;13.00;13.70
2463;DHT22;1243;54.298;10.172;2022-10-16T02:47:05;13.00;9.80
2463;DHT22;1243;54.298;10.172;2022-10-16T02:49:30;13.00;2.90
2463;DHT22;1243;54.298;10.172;2022-10-16T02:51:56;13.00;1.00
2463;DHT22;1243;54.298;10.172;2022-10-16T02:54:22;13.00;1.00
2463;DHT22;1243;54.298;10.172;2022-10-16T02:56:47;13.00;1.00
2463;DHT22;1243;54.298;10.172;2022-10-16T02:59:13;12.90;1.00
2463;DHT22;1243;54.298;10.172;2022-10-16T03:01:38;12.90;1.00
2463;DHT22;1243;54.298;10.172;2022-10-16T03:04:04;12.80;1.00
2463;DHT22;1243;54.298;10.172;2022-10-16T03:06:30;12.80;1.00
2463;DHT22;1243;54.298;10.172;2022-10-16T03:08:55;12.80;1.00
2463;DHT22;1243;54.298;10.172;2022-10-16T03:11:21;12.80;1.00
2463;DHT22;1243;54.298;10.172;2022-10-16T03:13:47;12.80;1.00
2463;DHT22;1243;54.298;10.172;2022-10-16T03:16:12;12.80;1.00
2463;DHT22;1243;54.298;10.172;2022-10-16T03:18:38;12.80;1.00
2463;DHT22;1243;54.298;10.172;2022-10-16T03:21:04;12.80;1.00
2463;DHT22;1243;54.298;10.172;2022-10-16T03:23:30;12.80;1.00
2463;DHT22;1243;54.298;10.172;2022-10-16T03:25:55;12.70;1.00
2463;DHT22;1243;54.298;10.172;2022-10-16T03:28:21;12.70;1.00
2463;DHT22;1243;54.298;10.172;2022-10-16T03:30:46;12.70;1.00
2463;DHT22;1243;54.298;10.172;2022-10-16T03:33:12;12.70;1.00
2463;DHT22;1243;54.298;10.172;2022-10-16T03:35:38;12.60;1.00
2463;DHT22;1243;54.298;10.172;2022-10-16T03:38:03;12.60;1.00
2463;DHT22;1243;54.298;10.172;2022-10-16T03:40:29;12.60;1.00
2463;DHT22;1243;54.298;10.172;2022-10-16T03:43:00;12.60;1.00
2463;DHT22;1243;54.298;10.172;2022-10-16T03:45:26;12.60;1.00
2463;DHT22;1243;54.298;10.172;2022-10-16T03:47:52;12.60;1.00
2463;DHT22;1243;54.298;10.172;2022-10-16T03:50:18;12.60;1.00
2463;DHT22;1243;54.298;10.172;2022-10-16T03:52:44;12.60;1.00
2463;DHT22;1243;54.298;10.172;2022-10-16T03:55:09;12.60;1.00
2463;DHT22;1243;54.298;10.172;2022-10-16T03:57:35;12.60;1.00
2463;DHT22;1243;54.298;10.172;2022-10-16T04:00:01;12.50;1.00
2463;DHT22;1243;54.298;10.172;2022-10-16T04:02:26;12.60;1.00
2463;DHT22;1243;54.298;10.172;2022-10-16T04:04:52;12.60;1.00
2463;DHT22;1243;54.298;10.172;2022-10-16T04:07:18;12.50;1.00
2463;DHT22;1243;54.298;10.172;2022-10-16T04:09:44;12.50;1.00
2463;DHT22;1243;54.298;10.172;2022-10-16T04:12:10;12.50;1.00
2463;DHT22;1243;54.298;10.172;2022-10-16T04:14:35;12.50;1.00
2463;DHT22;1243;54.298;10.172;2022-10-16T04:17:01;12.50;1.00
2463;DHT22;1243;54.298;10.172;2022-10-16T04:19:26;12.50;1.00
2463;DHT22;1243;54.298;10.172;2022-10-16T04:21:52;12.50;1.00
2463;DHT22;1243;54.298;10.172;2022-10-16T04:24:18;12.50;1.00
2463;DHT22;1243;54.298;10.172;2022-10-16T04:26:43;12.50;1.00
2463;DHT22;1243;54.298;10.172;2022-10-16T04:29:09;12.40;1.00
2463;DHT22;1243;54.298;10.172;2022-10-16T04:31:34;12.40;1.00
2463;DHT22;1243;54.298;10.172;2022-10-16T04:34:00;12.40;1.00
2463;DHT22;1243;54.298;10.172;2022-10-16T04:36:26;12.40;1.00
2463;DHT22;1243;54.298;10.172;2022-10-16T04:38:51;12.30;1.00
2463;DHT22;1243;54.298;10.172;2022-10-16T04:41:17;12.30;1.00
2463;DHT22;1243;54.298;10.172;2022-10-16T04:43:43;12.30;1.00
2463;DHT22;1243;54.298;10.172;2022-10-16T04:46:08;12.30;1.00
2463;DHT22;1243;54.298;10.172;2022-10-16T04:48:35;12.40;1.00
2463;DHT22;1243;54.298;10.172;2022-10-16T04:51:01;12.40;1.00
2463;DHT22;1243;54.298;10.172;2022-10-16T04:53:26;12.40;1.00
2463;DHT22;1243;54.298;10.172;2022-10-16T04:55:52;12.40;1.00
2463;DHT22;1243;54.298;10.172;2022-10-16T04:58:18;12.40;1.00
2463;DHT22;1243;54.298;10.172;2022-10-16T05:00:44;12.40;1.00
2463;DHT22;1243;54.298;10.172;2022-10-16T05:03:10;12.40;1.00
2463;DHT22;1243;54.298;10.172;2022-10-16T05:05:36;12.50;1.00
2463;DHT22;1243;54.298;10.172;2022-10-16T05:08:02;12.50;1.00
2463;DHT22;1243;54.298;10.172;2022-10-16T05:10:28;12.50;1.00
2463;DHT22;1243;54.298;10.172;2022-10-16T05:12:54;12.50;1.00
2463;DHT22;1243;54.298;10.172;2022-10-16T05:15:19;12.50;1.00
2463;DHT22;1243;54.298;10.172;2022-10-16T05:17:45;12.50;1.00
2463;DHT22;1243;54.298;10.172;2022-10-16T05:20:12;12.50;1.00
2463;DHT22;1243;54.298;10.172;2022-10-16T05:22:38;12.50;1.00
2463;DHT22;1243;54.298;10.172;2022-10-16T05:25:04;12.50;1.00
2463;DHT22;1243;54.298;10.172;2022-10-16T05:27:30;12.50;1.00
2463;DHT22;1243;54.298;10.172;2022-10-16T05:29:56;12.50;1.00
2463;DHT22;1243;54.298;10.172;2022-10-16T05:32:21;12.50;1.00
2463;DHT22;1243;54.298;10.172;2022-10-16T05:34:47;12.50;1.00
2463;DHT22;1243;54.298;10.172;2022-10-16T05:37:13;12.50;1.00
2463;DHT22;1243;54.298;10.172;2022-10-16T05:39:39;12.50;1.00
2463;DHT22;1243;54.298;10.172;2022-10-16T05:42:05;12.50;1.00
2463;DHT22;1243;54.298;10.172;2022-10-16T05:44:31;12.50;1.00
2463;DHT22;1243;54.298;10.172;2022-10-16T05:46:56;12.50;1.00
2463;DHT22;1243;54.298;10.172;2022-10-16T05:49:22;12.60;1.00
2463;DHT22;1243;54.298;10.172;2022-10-16T05:51:48;12.60;1.00
2463;DHT22;1243;54.298;10.172;2022-10-16T05:54:14;12.60;1.00
2463;DHT22;1243;54.298;10.172;2022-10-16T05:56:39;12.50;1.00
2463;DHT22;1243;54.298;10.172;2022-10-16T05:59:05;12.50;1.00
2463;DHT22;1243;54.298;10.172;2022-10-16T06:01:31;12.60;1.00
2463;DHT22;1243;54.298;10.172;2022-10-16T06:03:57;12.60;1.00
2463;DHT22;1243;54.298;10.172;2022-10-16T06:06:26;12.60;1.00
2463;DHT22;1243;54.298;10.172;2022-10-16T06:08:54;12.50;1.00
2463;DHT22;1243;54.298;10.172;2022-10-16T06:11:22;12.50;1.00
2463;DHT22;1243;54.298;10.172;2022-10-16T06:13:56;12.60;1.00
2463;DHT22;1243;54.298;10.172;2022-10-16T06:16:22;12.60;1.00
2463;DHT22;1243;54.298;10.172;2022-10-16T06:18:51;12.70;1.00
2463;DHT22;1243;54.298;10.172;2022-10-16T06:21:22;12.70;1.00
2463;DHT22;1243;54.298;10.172;2022-10-16T06:23:50;12.70;1.00
2463;DHT22;1243;54.298;10.172;2022-10-16T06:26:18;12.70;1.00
2463;DHT22;1243;54.298;10.172;2022-10-16T06:28:44;12.70;1.00
2463;DHT22;1243;54.298;10.172;2022-10-16T06:31:11;12.80;1.00
2463;DHT22;1243;54.298;10.172;2022-10-16T06:33:38;12.80;1.00
2463;DHT22;1243;54.298;10.172;2022-10-16T06:38:33;12.80;1.00
2463;DHT22;1243;54.298;10.172;2022-10-16T06:40:59;12.80;1.00
2463;DHT22;1243;54.298;10.172;2022-10-16T06:43:25;12.80;1.00
2463;DHT22;1243;54.298;10.172;2022-10-16T06:45:55;12.90;1.00
2463;DHT22;1243;54.298;10.172;2022-10-16T06:48:22;12.90;1.00
2463;DHT22;1243;54.298;10.172;2022-10-16T06:51:11;13.00;1.00
2463;DHT22;1243;54.298;10.172;2022-10-16T06:53:40;13.00;1.00
2463;DHT22;1243;54.298;10.172;2022-10-16T06:56:13;13.00;1.00
2463;DHT22;1243;54.298;10.172;2022-10-16T06:58:40;13.00;1.00
2463;DHT22;1243;54.298;10.172;2022-10-16T07:01:06;13.00;1.00
2463;DHT22;1243;54.298;10.172;2022-10-16T07:03:32;13.10;1.00
2463;DHT22;1243;54.298;10.172;2022-10-16T07:06:02;13.10;1.00
2463;DHT22;1243;54.298;10.172;2022-10-16T07:08:34;13.00;1.00
2463;DHT22;1243;54.298;10.172;2022-10-16T07:11:04;13.10;1.00
2463;DHT22;1243;54.298;10.172;2022-10-16T07:13:33;13.10;1.00
2463;DHT22;1243;54.298;10.172;2022-10-16T07:16:11;13.10;1.00
2463;DHT22;1243;54.298;10.172;2022-10-16T07:18:37;13.20;1.00
2463;DHT22;1243;54.298;10.172;2022-10-16T07:21:12;13.20;1.00
2463;DHT22;1243;54.298;10.172;2022-10-16T07:23:38;13.20;1.00
2463;DHT22;1243;54.298;10.172;2022-10-16T07:26:05;13.20;1.00
2463;DHT22;1243;54.298;10.172;2022-10-16T07:28:31;13.30;1.00
2463;DHT22;1243;54.298;10.172;2022-10-16T07:31:09;13.40;1.00
2463;DHT22;1243;54.298;10.172;2022-10-16T07:33:37;13.50;1.00
2463;DHT22;1243;54.298;10.172;2022-10-16T07:36:03;13.50;1.00
2463;DHT22;1243;54.298;10.172;2022-10-16T07:38:29;13.60;1.00
2463;DHT22;1243;54.298;10.172;2022-10-16T07:41:02;13.50;99.90
2463;DHT22;1243;54.298;10.172;2022-10-16T07:43:28;13.60;99.90
2463;DHT22;1243;54.298;10.172;2022-10-16T07:45:55;13.60;99.90
2463;DHT22;1243;54.298;10.172;2022-10-16T07:48:21;13.50;99.90
2463;DHT22;1243;54.298;10.172;2022-10-16T07:50:48;13.50;99.90
2463;DHT22;1243;54.298;10.172;2022-10-16T07:53:14;13.60;99.90
2463;DHT22;1243;54.298;10.172;2022-10-16T07:55:40;13.60;99.90
2463;DHT22;1243;54.298;10.172;2022-10-16T07:58:06;13.70;99.90
2463;DHT22;1243;54.298;10.172;2022-10-16T08:00:32;13.70;99.90
2463;DHT22;1243;54.298;10.172;2022-10-16T08:02:58;13.70;99.90
2463;DHT22;1243;54.298;10.172;2022-10-16T08:05:31;13.80;99.90
2463;DHT22;1243;54.298;10.172;2022-10-16T08:07:58;13.90;99.90
2463;DHT22;1243;54.298;10.172;2022-10-16T08:10:25;14.00;99.90
2463;DHT22;1243;54.298;10.172;2022-10-16T08:12:52;14.00;99.90
2463;DHT22;1243;54.298;10.172;2022-10-16T08:15:18;13.90;99.90
2463;DHT22;1243;54.298;10.172;2022-10-16T08:17:44;14.00;99.90
2463;DHT22;1243;54.298;10.172;2022-10-16T08:20:10;14.00;99.90
2463;DHT22;1243;54.298;10.172;2022-10-16T08:22:36;14.10;99.90
2463;DHT22;1243;54.298;10.172;2022-10-16T08:25:02;14.20;99.90
2463;DHT22;1243;54.298;10.172;2022-10-16T08:27:32;14.30;99.90
2463;DHT22;1243;54.298;10.172;2022-10-16T08:29:58;14.40;99.90
2463;DHT22;1243;54.298;10.172;2022-10-16T08:32:23;14.50;99.90
2463;DHT22;1243;54.298;10.172;2022-10-16T08:34:49;14.60;99.90
2463;DHT22;1243;54.298;10.172;2022-10-16T08:37:14;14.70;99.90
2463;DHT22;1243;54.298;10.172;2022-10-16T08:39:40;14.70;99.90
2463;DHT22;1243;54.298;10.172;2022-10-16T08:47:26;15.00;99.90
2463;DHT22;1243;54.298;10.172;2022-10-16T08:50:02;15.00;99.90
2463;DHT22;1243;54.298;10.172;2022-10-16T08:52:35;15.00;99.90
2463;DHT22;1243;54.298;10.172;2022-10-16T08:55:04;15.10;99.90
2463;DHT22;1243;54.298;10.172;2022-10-16T08:57:30;15.20;99.90
2463;DHT22;1243;54.298;10.172;2022-10-16T09:00:00;15.30;99.90
2463;DHT22;1243;54.298;10.172;2022-10-16T09:02:59;15.40;99.90
2463;DHT22;1243;54.298;10.172;2022-10-16T09:05:55;15.40;99.90
2463;DHT22;1243;54.298;10.172;2022-10-16T09:14:32;16.10;99.90
2463;DHT22;1243;54.298;10.172;2022-10-16T09:23:31;16.50;99.90
2463;DHT22;1243;54.298;10.172;2022-10-16T09:26:00;16.60;99.90
2463;DHT22;1243;54.298;10.172;2022-10-16T09:28:26;16.40;99.90
2463;DHT22;1243;54.298;10.172;2022-10-16T09:30:51;16.40;99.90
2463;DHT22;1243;54.298;10.172;2022-10-16T09:33:20;16.30;99.90
2463;DHT22;1243;54.298;10.172;2022-10-16T09:35:57;16.30;99.90
2463;DHT22;1243;54.298;10.172;2022-10-16T09:38:31;16.40;99.90
2463;DHT22;1243;54.298;10.172;2022-10-16T09:40:59;16.60;99.90
2463;DHT22;1243;54.298;10.172;2022-10-16T09:46:08;16.90;99.90
2463;DHT22;1243;54.298;10.172;2022-10-16T09:48:39;17.10;78.50
2463;DHT22;1243;54.298;10.172;2022-10-16T09:51:24;17.30;69.70
2463;DHT22;1243;54.298;10.172;2022-10-16T09:54:01;17.40;37.20
2463;DHT22;1243;54.298;10.172;2022-10-16T09:56:28;17.20;30.90
2463;DHT22;1243;54.298;10.172;2022-10-16T09:58:57;17.10;26.80
2463;DHT22;1243;54.298;10.172;2022-10-16T10:01:36;16.90;48.40
2463;DHT22;1243;54.298;10.172;2022-10-16T10:04:03;16.80;48.80
2463;DHT22;1243;54.298;10.172;2022-10-16T10:06:33;16.70;41.90
2463;DHT22;1243;54.298;10.172;2022-10-16T10:20:13;16.30;63.50
2463;DHT22;1243;54.298;10.172;2022-10-16T10:22:45;16.30;71.60
2463;DHT22;1243;54.298;10.172;2022-10-16T10:27:43;16.40;82.50
2463;DHT22;1243;54.298;10.172;2022-10-16T10:30:22;16.50;75.70
2463;DHT22;1243;54.298;10.172;2022-10-16T10:36:03;16.90;65.20
2463;DHT22;1243;54.298;10.172;2022-10-16T10:38:49;17.00;46.60
2463;DHT22;1243;54.298;10.172;2022-10-16T10:49:10;17.40;5.70
2463;DHT22;1243;54.298;10.172;2022-10-16T10:55:26;17.50;1.00
2463;DHT22;1243;54.298;10.172;2022-10-16T11:00:42;17.60;1.00
2463;DHT22;1243;54.298;10.172;2022-10-16T11:08:37;17.60;1.00
2463;DHT22;1243;54.298;10.172;2022-10-16T11:11:16;17.60;1.00
2463;DHT22;1243;54.298;10.172;2022-10-16T11:13:54;17.70;1.00
2463;DHT22;1243;54.298;10.172;2022-10-16T11:16:26;17.50;1.00
2463;DHT22;1243;54.298;10.172;2022-10-16T11:18:59;17.50;1.00
2463;DHT22;1243;54.298;10.172;2022-10-16T11:21:31;17.70;1.00
2463;DHT22;1243;54.298;10.172;2022-10-16T11:24:10;17.60;1.00
2463;DHT22;1243;54.298;10.172;2022-10-16T11:26:42;17.60;1.00
2463;DHT22;1243;54.298;10.172;2022-10-16T11:29:19;17.50;1.00
2463;DHT22;1243;54.298;10.172;2022-10-16T11:32:01;17.30;1.00
2463;DHT22;1243;54.298;10.172;2022-10-16T11:37:19;17.10;1.00
2463;DHT22;1243;54.298;10.172;2022-10-16T11:39:47;17.00;1.00
2463;DHT22;1243;54.298;10.172;2022-10-16T11:47:35;17.20;1.00
2463;DHT22;1243;54.298;10.172;2022-10-16T11:55:43;17.50;1.00
2463;DHT22;1243;54.298;10.172;2022-10-16T11:58:39;17.50;1.00
2463;DHT22;1243;54.298;10.172;2022-10-16T12:03:46;17.60;1.00
2463;DHT22;1243;54.298;10.172;2022-10-16T12:06:22;17.70;1.00
2463;DHT22;1243;54.298;10.172;2022-10-16T12:08:51;17.80;1.00
2463;DHT22;1243;54.298;10.172;2022-10-16T12:13:52;17.40;1.00
2463;DHT22;1243;54.298;10.172;2022-10-16T12:16:28;17.30;1.00
2463;DHT22;1243;54.298;10.172;2022-10-16T12:19:24;16.90;1.00
2463;DHT22;1243;54.298;10.172;2022-10-16T12:21:52;16.90;1.00
2463;DHT22;1243;54.298;10.172;2022-10-16T12:26:51;16.90;1.00
2463;DHT22;1243;54.298;10.172;2022-10-16T12:29:36;17.20;1.00
2463;DHT22;1243;54.298;10.172;2022-10-16T12:32:41;17.30;1.00
2463;DHT22;1243;54.298;10.172;2022-10-16T12:35:19;17.60;1.00
2463;DHT22;1243;54.298;10.172;2022-10-16T12:37:45;17.90;1.00
2463;DHT22;1243;54.298;10.172;2022-10-16T12:40:15;18.00;1.00
2463;DHT22;1243;54.298;10.172;2022-10-16T12:42:42;18.40;1.00
2463;DHT22;1243;54.298;10.172;2022-10-16T12:45:29;19.00;1.00
2463;DHT22;1243;54.298;10.172;2022-10-16T12:47:56;19.40;1.00
2463;DHT22;1243;54.298;10.172;2022-10-16T12:50:34;19.30;1.00
2463;DHT22;1243;54.298;10.172;2022-10-16T12:53:02;19.20;1.00
2463;DHT22;1243;54.298;10.172;2022-10-16T12:55:40;19.50;1.00
2463;DHT22;1243;54.298;10.172;2022-10-16T12:58:17;20.50;1.00
2463;DHT22;1243;54.298;10.172;2022-10-16T13:00:54;20.50;1.00
2463;DHT22;1243;54.298;10.172;2022-10-16T13:16:45;17.40;1.00
2463;DHT22;1243;54.298;10.172;2022-10-16T13:19:33;17.80;1.00
2463;DHT22;1243;54.298;10.172;2022-10-16T13:22:20;17.80;1.00
2463;DHT22;1243;54.298;10.172;2022-10-16T13:28:05;17.50;1.00
2463;DHT22;1243;54.298;10.172;2022-10-16T13:30:40;17.20;1.00
2463;DHT22;1243;54.298;10.172;2022-10-16T13:35:52;17.20;1.00
2463;DHT22;1243;54.298;10.172;2022-10-16T13:38:22;17.10;1.00
2463;DHT22;1243;54.298;10.172;2022-10-16T13:40:51;17.10;1.00
2463;DHT22;1243;54.298;10.172;2022-10-16T13:43:31;17.10;1.00
2463;DHT22;1243;54.298;10.172;2022-10-16T13:46:12;17.10;1.00
2463;DHT22;1243;54.298;10.172;2022-10-16T13:48:38;17.00;1.00
2463;DHT22;1243;54.298;10.172;2022-10-16T13:51:17;17.00;1.00
2463;DHT22;1243;54.298;10.172;2022-10-16T13:53:44;17.00;1.00
2463;DHT22;1243;54.298;10.172;2022-10-16T13:56:21;16.90;1.00
2463;DHT22;1243;54.298;10.172;2022-10-16T13:59:01;16.90;1.00
2463;DHT22;1243;54.298;10.172;2022-10-16T14:01:41;16.90;1.00
2463;DHT22;1243;54.298;10.172;2022-10-16T14:04:09;16.90;1.00
2463;DHT22;1243;54.298;10.172;2022-10-16T14:06:36;16.90;1.00
2463;DHT22;1243;54.298;10.172;2022-10-16T14:12:02;17.00;1.00
2463;DHT22;1243;54.298;10.172;2022-10-16T14:14:35;17.10;1.00
2463;DHT22;1243;54.298;10.172;2022-10-16T14:17:04;17.10;1.00
2463;DHT22;1243;54.298;10.172;2022-10-16T14:19:31;17.20;1.00
2463;DHT22;1243;54.298;10.172;2022-10-16T14:22:38;17.20;1.00
2463;DHT22;1243;54.298;10.172;2022-10-16T14:30:27;17.20;1.00
2463;DHT22;1243;54.298;10.172;2022-10-16T14:32:58;17.10;1.00
2463;DHT22;1243;54.298;10.172;2022-10-16T14:35:28;17.00;1.00
2463;DHT22;1243;54.298;10.172;2022-10-16T14:37:55;16.80;1.00
2463;DHT22;1243;54.298;10.172;2022-10-16T14:40:25;16.80;1.00
2463;DHT22;1243;54.298;10.172;2022-10-16T14:42:52;16.70;1.00
2463;DHT22;1243;54.298;10.172;2022-10-16T14:45:24;16.70;1.00
2463;DHT22;1243;54.298;10.172;2022-10-16T14:47:54;16.70;1.00
2463;DHT22;1243;54.298;10.172;2022-10-16T14:50:20;16.60;1.00
2463;DHT22;1243;54.298;10.172;2022-10-16T14:52:46;16.60;1.00
2463;DHT22;1243;54.298;10.172;2022-10-16T14:55:12;16.50;1.00
2463;DHT22;1243;54.298;10.172;2022-10-16T14:57:38;16.60;1.00
2463;DHT22;1243;54.298;10.172;2022-10-16T15:00:20;16.50;1.00
2463;DHT22;1243;54.298;10.172;2022-10-16T15:02:47;16.40;1.00
2463;DHT22;1243;54.298;10.172;2022-10-16T15:05:25;16.40;1.00
2463;DHT22;1243;54.298;10.172;2022-10-16T15:07:53;16.30;1.00
2463;DHT22;1243;54.298;10.172;2022-10-16T15:10:20;16.30;1.00
2463;DHT22;1243;54.298;10.172;2022-10-16T15:12:46;16.20;1.00
2463;DHT22;1243;54.298;10.172;2022-10-16T15:17:53;16.30;1.00
2463;DHT22;1243;54.298;10.172;2022-10-16T15:20:22;16.20;1.00
2463;DHT22;1243;54.298;10.172;2022-10-16T15:22:48;16.10;1.00
2463;DHT22;1243;54.298;10.172;2022-10-16T15:25:31;16.00;1.00
2463;DHT22;1243;54.298;10.172;2022-10-16T15:28:01;15.90;1.00
2463;DHT22;1243;54.298;10.172;2022-10-16T15:30:28;15.90;1.00
2463;DHT22;1243;54.298;10.172;2022-10-16T15:32:54;15.80;1.00
2463;DHT22;1243;54.298;10.172;2022-10-16T15:35:19;15.80;1.00
2463;DHT22;1243;54.298;10.172;2022-10-16T15:37:46;15.80;1.00
2463;DHT22;1243;54.298;10.172;2022-10-16T15:40:13;15.60;1.00
2463;DHT22;1243;54.298;10.172;2022-10-16T15:42:39;15.50;1.00
2463;DHT22;1243;54.298;10.172;2022-10-16T15:45:05;15.50;1.00
2463;DHT22;1243;54.298;10.172;2022-10-16T15:47:32;15.40;1.00
2463;DHT22;1243;54.298;10.172;2022-10-16T15:49:57;15.40;1.00
2463;DHT22;1243;54.298;10.172;2022-10-16T15:52:23;15.40;1.00
2463;DHT22;1243;54.298;10.172;2022-10-16T15:54:49;15.30;1.00
2463;DHT22;1243;54.298;10.172;2022-10-16T15:57:15;15.30;1.00
2463;DHT22;1243;54.298;10.172;2022-10-16T15:59:40;15.20;1.00
2463;DHT22;1243;54.298;10.172;2022-10-16T16:02:07;15.10;1.00
2463;DHT22;1243;54.298;10.172;2022-10-16T16:04:33;15.00;1.00
2463;DHT22;1243;54.298;10.172;2022-10-16T16:06:58;14.90;1.00
2463;DHT22;1243;54.298;10.172;2022-10-16T16:09:24;14.90;1.00
2463;DHT22;1243;54.298;10.172;2022-10-16T16:11:50;14.80;1.00
2463;DHT22;1243;54.298;10.172;2022-10-16T16:14:17;14.80;1.00
2463;DHT22;1243;54.298;10.172;2022-10-16T16:16:43;14.80;1.00
2463;DHT22;1243;54.298;10.172;2022-10-16T16:19:08;14.70;1.00
2463;DHT22;1243;54.298;10.172;2022-10-16T16:21:35;14.70;1.00
2463;DHT22;1243;54.298;10.172;2022-10-16T16:24:00;14.70;1.00
2463;DHT22;1243;54.298;10.172;2022-10-16T16:26:30;14.60;1.00
2463;DHT22;1243;54.298;10.172;2022-10-16T16:29:02;14.50;1.00
2463;DHT22;1243;54.298;10.172;2022-10-16T16:31:30;14.50;1.00
2463;DHT22;1243;54.298;10.172;2022-10-16T16:33:56;14.50;1.00
2463;DHT22;1243;54.298;10.172;2022-10-16T16:36:23;14.40;1.00
2463;DHT22;1243;54.298;10.172;2022-10-16T16:38:49;14.40;1.00
2463;DHT22;1243;54.298;10.172;2022-10-16T16:41:23;14.40;1.00
2463;DHT22;1243;54.298;10.172;2022-10-16T16:43:50;14.40;1.00
2463;DHT22;1243;54.298;10.172;2022-10-16T16:46:19;14.40;1.00
2463;DHT22;1243;54.298;10.172;2022-10-16T16:48:45;14.40;1.00
2463;DHT22;1243;54.298;10.172;2022-10-16T16:51:16;14.30;1.00
2463;DHT22;1243;54.298;10.172;2022-10-16T16:53:45;14.30;1.00
2463;DHT22;1243;54.298;10.172;2022-10-16T16:56:12;14.30;1.00
2463;DHT22;1243;54.298;10.172;2022-10-16T16:58:38;14.20;1.00
2463;DHT22;1243;54.298;10.172;2022-10-16T17:01:03;14.30;1.00
2463;DHT22;1243;54.298;10.172;2022-10-16T17:03:33;14.20;1.00
2463;DHT22;1243;54.298;10.172;2022-10-16T17:06:05;14.20;1.00
2463;DHT22;1243;54.298;10.172;2022-10-16T17:08:31;14.20;1.00
2463;DHT22;1243;54.298;10.172;2022-10-16T17:10:57;14.10;1.00
2463;DHT22;1243;54.298;10.172;2022-10-16T17:13:28;14.10;1.00
2463;DHT22;1243;54.298;10.172;2022-10-16T17:15:54;14.10;1.00
2463;DHT22;1243;54.298;10.172;2022-10-16T17:18:22;14.10;1.00
2463;DHT22;1243;54.298;10.172;2022-10-16T17:20:48;14.00;1.00
2463;DHT22;1243;54.298;10.172;2022-10-16T17:23:16;14.00;1.00
2463;DHT22;1243;54.298;10.172;2022-10-16T17:25:41;14.00;1.00
2463;DHT22;1243;54.298;10.172;2022-10-16T17:28:09;13.90;1.00
2463;DHT22;1243;54.298;10.172;2022-10-16T17:30:41;13.90;1.00
2463;DHT22;1243;54.298;10.172;2022-10-16T17:33:08;13.80;1.00
2463;DHT22;1243;54.298;10.172;2022-10-16T17:35:45;13.80;1.00
2463;DHT22;1243;54.298;10.172;2022-10-16T17:38:12;13.80;1.00
2463;DHT22;1243;54.298;10.172;2022-10-16T17:40:39;13.70;1.00
2463;DHT22;1243;54.298;10.172;2022-10-16T17:43:05;13.70;1.00
2463;DHT22;1243;54.298;10.172;2022-10-16T17:45:34;13.70;1.00
2463;DHT22;1243;54.298;10.172;2022-10-16T17:48:00;13.70;1.00
2463;DHT22;1243;54.298;10.172;2022-10-16T17:50:26;13.60;1.00
2463;DHT22;1243;54.298;10.172;2022-10-16T17:52:52;13.60;1.00
2463;DHT22;1243;54.298;10.172;2022-10-16T17:55:17;13.60;1.00
2463;DHT22;1243;54.298;10.172;2022-10-16T17:57:43;13.50;1.00
2463;DHT22;1243;54.298;10.172;2022-10-16T18:00:09;13.40;1.00
2463;DHT22;1243;54.298;10.172;2022-10-16T18:02:35;13.30;1.00
2463;DHT22;1243;54.298;10.172;2022-10-16T18:05:01;13.30;1.00
2463;DHT22;1243;54.298;10.172;2022-10-16T18:07:29;13.20;1.00
2463;DHT22;1243;54.298;10.172;2022-10-16T18:09:54;13.20;1.00
2463;DHT22;1243;54.298;10.172;2022-10-16T18:12:20;13.10;1.00
2463;DHT22;1243;54.298;10.172;2022-10-16T18:14:45;13.10;1.00
2463;DHT22;1243;54.298;10.172;2022-10-16T18:17:11;13.10;1.00
2463;DHT22;1243;54.298;10.172;2022-10-16T18:19:37;13.00;1.00
2463;DHT22;1243;54.298;10.172;2022-10-16T18:22:02;12.90;1.00
2463;DHT22;1243;54.298;10.172;2022-10-16T18:24:28;12.90;3.50
2463;DHT22;1243;54.298;10.172;2022-10-16T18:26:55;12.90;11.00
2463;DHT22;1243;54.298;10.172;2022-10-16T18:29:22;12.80;18.30